Aviation Digital Data Service (ADDS)

Output produced by METARs form (0627 UTC 19 January 2017)
found at http://www.aviationweather.gov/adds/metars/
 
KDOV 190558Z AUTO 29003KT 10SM OVC038 06/06 A3004 RMK AO2 SLP176 T00640064 10091 20064 53001 $
TAF KDOV 190005Z 1900/2006 33009KT 9999 BKN040 QNH3002INS 
     BECMG 1902/1903 32006KT 9999 SCT040 QNH3004INS 
     BECMG 1913/1914 VRB06KT 9999 FEW015 SCT025 QNH3003INS TX11/1919Z TN03/1911Z